Time;durP1;ratioP1;P1;durP2;ratioP2;P2;SDS_P1;SDS_P2;PMS_P1;PMS_P2;Temp;Humidity;BMP_temperature;BMP_pressure;BME280_temperature;BME280_humidity;BME280_pressure;Samples;Min_cycle;Max_cycle;Signal;HPM_P1;HPM_P2
2022/11/20 00:01:44;;;;;;;19.60;9.00;;;;;;;;;;5079544;28;20442;-87
2022/11/20 00:04:11;;;;;;;17.63;10.47;;;4.10;99.90;;;;;;5061871;28;20434;-88
2022/11/20 00:06:37;;;;;;;17.83;9.65;;;4.10;99.90;;;;;;5060516;28;20466;-89
2022/11/20 00:09:05;;;;;;;16.90;9.23;;;;;;;;;;5059590;28;20510;-87
2022/11/20 00:11:31;;;;;;;17.60;9.45;;;;;;;;;;5066096;28;20787;-89
2022/11/20 00:14:01;;;;;;;19.35;9.73;;;4.10;99.90;;;;;;5053546;28;20645;-87
2022/11/20 00:16:28;;;;;;;21.30;11.40;;;4.20;99.90;;;;;;5070263;28;20177;-88
2022/11/20 00:18:54;;;;;;;20.73;11.45;;;4.30;99.90;;;;;;5059316;28;20192;-86
2022/11/20 00:21:22;;;;;;;24.67;11.75;;;4.40;99.90;;;;;;5056031;28;20833;-88
2022/11/20 00:23:49;;;;;;;27.38;11.63;;;4.50;99.90;;;;;;5057697;28;20185;-87
2022/11/20 00:26:16;;;;;;;25.95;12.13;;;4.60;99.90;;;;;;5057424;28;20180;-88
2022/11/20 00:28:43;;;;;;;28.00;13.95;;;4.60;99.90;;;;;;5058786;28;20578;-87
2022/11/20 00:31:14;;;;;;;24.35;13.45;;;4.70;99.90;;;;;;5057402;28;20208;-88
2022/11/20 00:33:40;;;;;;;24.85;13.90;;;4.50;99.90;;;;;;5057622;28;20215;-88
2022/11/20 00:36:08;;;;;;;42.17;16.38;;;4.50;99.90;;;;;;5057891;28;20180;-87
2022/11/20 00:38:34;;;;;;;19.27;11.00;;;4.40;99.90;;;;;;5073146;28;20273;-87
2022/11/20 00:41:03;;;;;;;25.25;11.93;;;4.20;99.90;;;;;;5056733;28;20204;-88
2022/11/20 00:43:29;;;;;;;22.30;12.68;;;4.20;99.90;;;;;;5055042;28;20188;-87
2022/11/20 00:46:06;;;;;;;25.10;11.13;;;4.10;99.90;;;;;;5067652;28;20193;-88
2022/11/20 00:48:32;;;;;;;23.30;11.60;;;4.10;99.90;;;;;;5068480;28;20683;-89
2022/11/20 00:50:58;;;;;;;26.50;11.70;;;;;;;;;;5058725;28;20323;-88
2022/11/20 00:53:24;;;;;;;25.50;11.07;;;4.10;99.90;;;;;;5056137;28;20442;-88
2022/11/20 00:56:03;;;;;;;21.67;11.30;;;4.10;99.90;;;;;;5057932;28;20230;-87
2022/11/20 00:58:34;;;;;;;23.05;11.70;;;4.10;99.90;;;;;;5055189;28;20185;-87
2022/11/20 01:01:12;;;;;;;27.27;12.98;;;4.10;99.90;;;;;;5070182;28;20200;-88
2022/11/20 01:03:43;;;;;;;25.55;11.73;;;4.10;99.90;;;;;;5061892;28;20189;-87
2022/11/20 01:06:21;;;;;;;29.65;12.07;;;4.20;99.90;;;;;;5059590;28;20614;-88
2022/11/20 01:08:47;;;;;;;32.70;12.75;;;4.20;99.90;;;;;;5065312;28;20677;-89
2022/11/20 01:11:19;;;;;;;22.33;10.88;;;4.30;99.90;;;;;;5067986;28;20216;-88
2022/11/20 01:13:46;;;;;;;23.83;11.95;;;4.40;99.90;;;;;;5061699;28;20242;-89
2022/11/20 01:16:18;;;;;;;27.98;12.98;;;4.60;99.90;;;;;;5062441;28;20211;-88
2022/11/20 01:18:46;;;;;;;25.48;12.52;;;4.40;99.90;;;;;;5064561;28;20172;-88
2022/11/20 01:21:16;;;;;;;28.00;13.43;;;;;;;;;;5065119;28;20392;-88
2022/11/20 01:23:43;;;;;;;25.90;12.98;;;4.60;99.90;;;;;;5068206;28;20200;-88
2022/11/20 01:26:15;;;;;;;27.90;13.02;;;4.50;99.90;;;;;;5068780;28;20241;-88
2022/11/20 01:28:41;;;;;;;28.27;12.38;;;;;;;;;;5062573;28;20195;-88
2022/11/20 01:31:18;;;;;;;25.00;12.43;;;4.70;99.90;;;;;;5070792;28;20234;-87
2022/11/20 01:33:45;;;;;;;28.50;13.60;;;;;;;;;;5070771;28;20695;-88
2022/11/20 01:36:12;;;;;;;25.52;12.25;;;4.70;99.90;;;;;;5068753;28;20191;-88
2022/11/20 01:38:38;;;;;;;23.15;11.70;;;4.70;99.90;;;;;;5064800;28;20205;-88
2022/11/20 01:41:04;;;;;;;29.52;12.20;;;;;;;;;;5062017;28;20203;-87
2022/11/20 01:43:31;;;;;;;34.08;13.85;;;4.60;99.90;;;;;;5067682;28;20264;-88
2022/11/20 01:46:19;;;;;;;23.80;12.32;;;4.40;99.90;;;;;;5065365;28;20207;-87
2022/11/20 01:49:00;;;;;;;21.38;12.75;;;4.80;99.90;;;;;;5088565;28;20180;-87
2022/11/20 01:51:46;;;;;;;28.42;15.02;;;5.10;99.90;;;;;;5066925;28;20189;-88
2022/11/20 01:54:28;;;;;;;26.35;13.63;;;5.80;99.90;;;;;;5069107;28;20649;-88
2022/11/20 01:56:57;;;;;;;27.08;13.55;;;5.10;99.90;;;;;;5059760;28;20861;-88
2022/11/20 01:59:24;;;;;;;28.27;12.20;;;5.20;99.90;;;;;;5057775;28;20633;-88
2022/11/20 02:01:50;;;;;;;21.05;12.25;;;;;;;;;;5064766;28;20176;-88
2022/11/20 02:04:16;;;;;;;21.07;11.30;;;5.40;99.90;;;;;;5057755;28;20200;-88
2022/11/20 02:06:53;;;;;;;15.52;8.95;;;5.50;99.90;;;;;;5058730;28;20435;-89
2022/11/20 02:09:19;;;;;;;19.90;11.15;;;;;;;;;;5054899;28;20724;-88
2022/11/20 02:11:45;;;;;;;25.83;14.20;;;;;;;;;;5054149;28;20301;-87
2022/11/20 02:14:11;;;;;;;18.93;10.50;;;;;;;;;;5058858;28;20207;-88
2022/11/20 02:16:43;;;;;;;22.60;9.80;;;5.70;99.90;;;;;;5064177;28;20542;-88
2022/11/20 02:19:25;;;;;;;22.58;12.15;;;5.80;99.90;;;;;;5058439;28;20224;-88
2022/11/20 02:22:12;;;;;;;19.45;10.98;;;5.80;99.90;;;;;;5055753;28;20854;-88
2022/11/20 02:24:38;;;;;;;22.02;10.32;;;;;;;;;;5056486;28;20260;-88
2022/11/20 02:27:08;;;;;;;14.10;8.73;;;5.90;99.90;;;;;;5055986;28;20283;-88
2022/11/20 02:29:39;;;;;;;14.02;9.25;;;5.90;99.90;;;;;;5059170;28;20180;-88
2022/11/20 02:32:05;;;;;;;10.50;7.20;;;6.00;99.90;;;;;;5062296;28;20238;-88
2022/11/20 02:34:31;;;;;;;15.85;8.00;;;;;;;;;;5053973;28;20176;-88
2022/11/20 02:36:58;;;;;;;20.77;9.65;;;5.90;99.90;;;;;;5057700;28;20180;-88
2022/11/20 02:39:26;;;;;;;14.50;9.13;;;6.00;99.90;;;;;;5054951;28;20193;-89
2022/11/20 02:41:54;;;;;;;16.88;8.85;;;6.00;99.90;;;;;;5051206;28;20185;-89
2022/11/20 02:44:19;;;;;;;19.88;9.27;;;6.20;99.90;;;;;;5061675;28;20185;-88
2022/11/20 02:46:45;;;;;;;13.03;7.33;;;;;;;;;;5067618;28;20206;-88
2022/11/20 02:49:11;;;;;;;18.20;9.02;;;;;;;;;;5063035;28;20439;-88
2022/11/20 02:51:37;;;;;;;18.80;8.88;;;;;;;;;;5057502;28;20197;-89
2022/11/20 02:54:03;;;;;;;13.20;7.50;;;;;;;;;;5058727;28;20181;-88
2022/11/20 02:56:29;;;;;;;14.23;8.83;;;;;;;;;;5083224;28;20446;-88
2022/11/20 02:58:55;;;;;;;11.73;7.60;;;;;;;;;;5073668;28;20451;-87
2022/11/20 03:01:22;;;;;;;16.67;9.23;;;;;;;;;;5065728;28;20814;-88
2022/11/20 03:03:52;;;;;;;12.48;8.65;;;;;;;;;;5075927;28;20433;-87
2022/11/20 03:06:18;;;;;;;14.63;8.02;;;;;;;;;;5061402;28;20843;-89
2022/11/20 03:08:44;;;;;;;18.30;9.80;;;;;;;;;;5064334;28;20221;-87
2022/11/20 03:11:10;;;;;;;12.40;8.10;;;;;;;;;;5064048;28;20451;-88
2022/11/20 03:13:36;;;;;;;13.88;8.38;;;;;;;;;;5057516;28;20457;-87
2022/11/20 03:16:17;;;;;;;14.90;8.67;;;6.20;99.90;;;;;;5061168;28;20189;-87
2022/11/20 03:18:42;;;;;;;10.77;7.15;;;6.30;99.90;;;;;;5057758;28;20460;-88
2022/11/20 03:21:10;;;;;;;13.73;8.10;;;6.30;99.90;;;;;;5058055;28;20215;-88
2022/11/20 03:23:36;;;;;;;11.18;7.57;;;;;;;;;;5055750;28;20998;-88
2022/11/20 03:26:23;;;;;;;15.18;7.55;;;6.30;99.90;;;;;;5056831;28;20187;-87
2022/11/20 03:28:54;;;;;;;11.00;6.63;;;6.30;99.90;;;;;;5060966;28;20208;-87
2022/11/20 03:31:22;;;;;;;13.40;8.38;;;6.40;99.90;;;;;;5065120;28;20219;-88
2022/11/20 03:33:48;;;;;;;9.05;6.15;;;6.30;99.90;;;;;;5063217;28;20244;-88
2022/11/20 03:36:16;;;;;;;12.23;7.43;;;6.30;99.90;;;;;;5063304;28;20295;-87
2022/11/20 03:38:42;;;;;;;12.65;6.30;;;;;;;;;;5060161;28;20234;-87
2022/11/20 03:41:10;;;;;;;11.97;6.20;;;6.10;99.90;;;;;;5073026;28;20212;-87
2022/11/20 03:43:36;;;;;;;11.35;6.88;;;;;;;;;;5063484;28;20439;-87
2022/11/20 03:46:03;;;;;;;9.48;7.00;;;;;;;;;;5059865;28;20180;-88
2022/11/20 03:48:29;;;;;;;14.25;7.03;;;;;;;;;;5061538;28;20235;-88
2022/11/20 03:51:16;;;;;;;11.83;5.40;;;6.10;99.90;;;;;;5054420;28;20259;-88
2022/11/20 03:53:43;;;;;;;9.88;5.70;;;6.00;99.90;;;;;;5062731;28;20435;-88
2022/11/20 03:56:10;;;;;;;11.70;4.72;;;6.00;99.90;;;;;;5085049;28;20199;-86
2022/11/20 03:58:39;;;;;;;7.38;5.65;;;6.20;99.90;;;;;;5065683;28;20184;-87
2022/11/20 04:01:09;;;;;;;8.88;5.85;;;6.20;99.90;;;;;;5068316;28;20200;-87
2022/11/20 04:03:36;;;;;;;10.52;5.95;;;6.10;99.90;;;;;;5063354;28;20173;-87
2022/11/20 04:06:07;;;;;;;11.43;6.38;;;6.30;99.90;;;;;;5061418;28;20200;-89
2022/11/20 04:08:33;;;;;;;13.57;5.85;;;;;;;;;;5058088;28;20734;-89
2022/11/20 04:11:32;;;;;;;9.00;5.00;;;6.20;99.90;;;;;;5061327;28;20205;-89
2022/11/20 04:13:59;;;;;;;8.68;4.68;;;6.10;99.90;;;;;;5058987;28;20292;-89
2022/11/20 04:16:26;;;;;;;8.25;5.82;;;6.10;99.90;;;;;;5062060;28;20284;-89
2022/11/20 04:18:56;;;;;;;7.95;6.50;;;6.10;99.90;;;;;;5070181;28;20206;-90
2022/11/20 04:21:22;;;;;;;11.95;5.45;;;6.20;99.90;;;;;;5067477;28;20257;-87
2022/11/20 04:23:49;;;;;;;11.77;6.97;;;6.20;99.90;;;;;;5069404;28;20204;-87
2022/11/20 04:26:15;;;;;;;11.38;5.00;;;;;;;;;;5072965;28;20203;-87
2022/11/20 04:28:41;;;;;;;7.07;5.35;;;;;;;;;;5059616;28;20263;-88
2022/11/20 04:31:07;;;;;;;8.93;5.07;;;;;;;;;;5060409;28;20252;-87
2022/11/20 04:33:33;;;;;;;6.20;3.47;;;;;;;;;;5059637;28;20200;-87
2022/11/20 04:36:09;;;;;;;8.02;4.80;;;6.30;99.90;;;;;;5075451;28;20470;-89
2022/11/20 04:38:35;;;;;;;6.60;4.38;;;6.30;99.90;;;;;;5057596;28;20196;-87
2022/11/20 04:41:03;;;;;;;6.27;4.40;;;6.30;99.90;;;;;;5054997;28;20609;-89
2022/11/20 04:43:29;;;;;;;8.52;4.90;;;;;;;;;;5058848;28;20335;-89
2022/11/20 04:45:59;;;;;;;8.02;5.03;;;6.20;99.90;;;;;;5074287;28;20247;-88
2022/11/20 04:48:26;;;;;;;9.60;5.78;;;6.10;99.90;;;;;;5058975;28;20209;-89
2022/11/20 04:50:53;;;;;;;6.30;5.03;;;6.00;99.90;;;;;;5057604;28;20886;-90
2022/11/20 04:53:20;;;;;;;8.18;4.60;;;6.20;99.90;;;;;;5058581;28;20201;-89
2022/11/20 04:55:46;;;;;;;7.40;4.80;;;6.10;99.90;;;;;;5057607;28;20791;-88
2022/11/20 04:58:12;;;;;;;6.22;4.68;;;;;;;;;;5056087;28;20688;-89
2022/11/20 05:00:38;;;;;;;8.52;4.88;;;;;;;;;;5059308;28;20755;-89
2022/11/20 05:03:04;;;;;;;8.98;4.57;;;;;;;;;;5060934;28;20185;-87
2022/11/20 05:05:30;;;;;;;7.70;4.10;;;6.40;99.90;;;;;;5063253;28;20314;-88
2022/11/20 05:07:57;;;;;;;13.67;5.30;;;6.20;99.90;;;;;;5056923;28;20316;-89
2022/11/20 05:10:23;;;;;;;7.60;4.43;;;6.30;99.90;;;;;;5055754;28;20451;-90
2022/11/20 05:12:49;;;;;;;5.55;4.05;;;;;;;;;;5054096;28;20185;-88
2022/11/20 05:15:15;;;;;;;6.77;3.77;;;;;;;;;;5064986;28;20263;-89
2022/11/20 05:17:41;;;;;;;8.27;4.53;;;;;;;;;;5060271;28;20427;-90
2022/11/20 05:20:07;;;;;;;8.17;3.60;;;;;;;;;;5059105;28;20455;-89
2022/11/20 05:22:33;;;;;;;4.43;3.50;;;;;;;;;;5071944;28;20431;-89
2022/11/20 05:25:00;;;;;;;5.20;3.53;;;6.30;99.90;;;;;;5057042;28;20218;-89
2022/11/20 05:27:26;;;;;;;7.45;3.60;;;;;;;;;;5056034;28;20554;-89
2022/11/20 05:29:52;;;;;;;6.90;4.10;;;;;;;;;;5065665;28;20222;-89
2022/11/20 05:32:18;;;;;;;9.50;4.00;;;;;;;;;;5070820;28;20429;-88
2022/11/20 05:34:44;;;;;;;4.60;2.63;;;;;;;;;;5065728;28;20436;-89
2022/11/20 05:37:10;;;;;;;12.83;3.30;;;;;;;;;;5068173;28;20668;-88
2022/11/20 05:39:36;;;;;;;6.93;4.20;;;;;;;;;;5068198;28;20487;-90
2022/11/20 05:44:46;;;;;;;10.10;3.75;;;;;;;;;;5059316;28;20522;-90
2022/11/20 05:47:12;;;;;;;9.30;3.60;;;;;;;;;;5062076;28;20242;-89
2022/11/20 05:49:38;;;;;;;2.90;2.13;;;;;;;;;;5067088;28;20455;-90
2022/11/20 05:52:04;;;;;;;5.10;2.88;;;6.50;99.90;;;;;;5074523;28;20415;-89
2022/11/20 05:54:29;;;;;;;9.40;3.77;;;;;;;;;;5064221;28;21999;-90
2022/11/20 05:56:55;;;;;;;5.03;2.83;;;;;;;;;;5059591;28;20255;-89
2022/11/20 05:59:21;;;;;;;7.90;3.30;;;;;;;;;;5058816;28;20438;-89
2022/11/20 06:01:47;;;;;;;6.60;2.93;;;;;;;;;;5070836;28;20443;-89
2022/11/20 06:04:13;;;;;;;1.85;1.70;;;;;;;;;;5081615;28;20474;-89
2022/11/20 06:06:39;;;;;;;6.17;2.73;;;;;;;;;;5060510;28;20219;-89
2022/11/20 06:09:05;;;;;;;3.78;2.90;;;6.40;99.90;;;;;;5066501;28;20574;-90
2022/11/20 06:11:31;;;;;;;3.00;2.53;;;;;;;;;;5057248;28;20260;-89
2022/11/20 06:13:57;;;;;;;4.43;3.03;;;;;;;;;;5058670;28;20174;-90
2022/11/20 06:16:23;;;;;;;3.47;2.33;;;;;;;;;;5067421;28;20850;-90
2022/11/20 06:18:49;;;;;;;3.00;2.40;;;;;;;;;;5059450;28;20435;-89
2022/11/20 06:21:19;;;;;;;3.90;2.53;;;6.50;99.90;;;;;;5073836;28;20540;-89
2022/11/20 06:23:46;;;;;;;5.75;2.40;;;;;;;;;;5066394;28;20444;-89
2022/11/20 06:26:14;;;;;;;3.47;2.42;;;6.50;99.90;;;;;;5056725;28;20185;-89
2022/11/20 06:28:40;;;;;;;4.60;2.38;;;;;;;;;;5063699;28;20759;-89
2022/11/20 06:31:07;;;;;;;3.70;2.80;;;6.60;99.90;;;;;;5063967;28;20229;-90
2022/11/20 06:33:33;;;;;;;3.15;2.30;;;5.90;99.90;;;;;;5057562;28;21199;-90
2022/11/20 06:36:00;;;;;;;2.80;2.60;;;6.50;99.90;;;;;;5062814;28;20302;-90
2022/11/20 06:38:26;;;;;;;4.45;2.50;;;5.90;99.90;;;;;;5057183;28;20223;-90
2022/11/20 06:40:52;;;;;;;6.38;2.30;;;;;;;;;;5059147;28;20216;-89
2022/11/20 06:43:18;;;;;;;3.13;2.20;;;;;;;;;;5058669;28;20180;-88
2022/11/20 06:45:44;;;;;;;4.70;2.20;;;;;;;;;;5079755;28;21527;-90
2022/11/20 06:48:10;;;;;;;3.20;2.60;;;;;;;;;;5063494;28;20454;-89
2022/11/20 06:50:38;;;;;;;4.05;1.98;;;6.70;99.90;;;;;;5061003;28;20451;-90
2022/11/20 06:53:04;;;;;;;3.22;1.90;;;6.40;99.90;;;;;;5059670;28;20195;-90
2022/11/20 06:55:30;;;;;;;2.40;1.90;;;;;;;;;;5077168;28;20169;-89
2022/11/20 06:57:56;;;;;;;1.75;1.65;;;;;;;;;;5063604;28;20432;-90
2022/11/20 07:00:22;;;;;;;4.43;2.30;;;;;;;;;;5060902;28;20204;-90
2022/11/20 07:02:49;;;;;;;5.63;2.40;;;;;;;;;;5057016;28;20188;-90
2022/11/20 07:05:15;;;;;;;2.97;2.70;;;;;;;;;;5046508;28;20506;-89
2022/11/20 07:07:41;;;;;;;3.03;2.03;;;;;;;;;;5065523;28;20291;-90
2022/11/20 07:10:07;;;;;;;2.30;1.70;;;;;;;;;;5053307;28;20464;-90
2022/11/20 07:12:33;;;;;;;5.45;1.90;;;;;;;;;;5051199;28;20844;-90
2022/11/20 07:14:59;;;;;;;2.33;1.80;;;;;;;;;;5058062;28;20188;-90
2022/11/20 07:17:27;;;;;;;2.40;1.80;;;;;;;;;;5060961;28;20433;-91
2022/11/20 07:19:53;;;;;;;1.75;1.50;;;;;;;;;;5066834;28;20473;-92
2022/11/20 07:22:21;;;;;;;5.17;1.97;;;;;;;;;;5073798;28;20460;-91
2022/11/20 07:28:10;;;;;;;6.00;1.80;;;6.10;99.90;;;;;;5057789;28;20218;-90
2022/11/20 07:30:36;;;;;;;2.03;1.50;;;;;;;;;;5059131;28;20204;-91
2022/11/20 07:33:10;;;;;;;2.20;1.52;;;6.30;99.90;;;;;;5054376;28;20263;-91
2022/11/20 07:35:36;;;;;;;3.78;2.00;;;;;;;;;;5058827;28;20184;-90
2022/11/20 07:38:02;;;;;;;3.70;2.00;;;;;;;;;;5059152;28;20192;-91
2022/11/20 07:40:29;;;;;;;4.00;1.57;;;6.20;99.90;;;;;;5057814;28;20839;-91
2022/11/20 07:42:56;;;;;;;2.95;1.30;;;6.10;99.90;;;;;;5053204;28;20475;-90
2022/11/20 07:45:23;;;;;;;3.17;1.75;;;6.20;99.90;;;;;;5053166;28;20180;-90
2022/11/20 07:47:49;;;;;;;2.70;1.75;;;6.40;99.90;;;;;;5070659;28;20761;-90
2022/11/20 07:50:15;;;;;;;3.33;2.13;;;;;;;;;;5055839;28;20212;-90
2022/11/20 07:52:41;;;;;;;2.50;1.95;;;;;;;;;;5052764;28;20259;-90
2022/11/20 07:55:07;;;;;;;3.67;1.30;;;6.20;99.90;;;;;;5053264;28;20268;-90
2022/11/20 07:57:33;;;;;;;2.60;1.80;;;;;;;;;;5056258;28;21050;-90
2022/11/20 07:59:59;;;;;;;4.30;1.90;;;;;;;;;;5062052;28;20209;-90
2022/11/20 08:02:25;;;;;;;2.43;2.07;;;;;;;;;;5061255;28;20466;-89
2022/11/20 08:04:51;;;;;;;2.27;1.57;;;;;;;;;;5062271;28;20461;-90
2022/11/20 08:07:17;;;;;;;2.90;1.67;;;;;;;;;;5050177;28;20466;-89
2022/11/20 08:09:43;;;;;;;1.50;1.40;;;;;;;;;;5069525;28;20460;-90
2022/11/20 08:15:02;;;;;;;2.88;1.80;;;;;;;;;;5055425;28;20200;-90
2022/11/20 08:17:28;;;;;;;2.05;1.23;;;;;;;;;;5055432;28;20184;-90
2022/11/20 08:19:54;;;;;;;4.90;1.60;;;;;;;;;;5060048;28;20247;-90
2022/11/20 08:22:20;;;;;;;1.50;1.40;;;;;;;;;;5059295;28;20448;-90
2022/11/20 08:24:46;;;;;;;2.30;1.80;;;;;;;;;;5052242;28;20440;-89
2022/11/20 08:27:12;;;;;;;5.00;2.17;;;6.20;99.90;;;;;;5070634;28;20535;-90
2022/11/20 08:29:38;;;;;;;1.73;1.63;;;;;;;;;;5074430;28;20254;-90
2022/11/20 08:32:04;;;;;;;2.70;1.73;;;;;;;;;;5063263;28;20196;-90
2022/11/20 08:34:30;;;;;;;2.53;2.33;;;;;;;;;;5066916;28;20487;-89
2022/11/20 08:36:56;;;;;;;2.30;1.67;;;;;;;;;;5051371;28;20280;-90
2022/11/20 08:39:22;;;;;;;2.63;1.43;;;;;;;;;;5055853;28;20179;-91
2022/11/20 08:41:48;;;;;;;2.63;2.20;;;;;;;;;;5053273;28;20439;-89
2022/11/20 08:44:14;;;;;;;4.67;2.27;;;;;;;;;;5070829;28;20178;-91
2022/11/20 08:46:41;;;;;;;3.40;2.33;;;6.40;99.90;;;;;;5050193;28;20885;-90
2022/11/20 08:49:12;;;;;;;2.40;1.90;;;6.40;99.90;;;;;;5060300;28;20471;-91
2022/11/20 08:51:38;;;;;;;2.80;2.13;;;6.40;99.90;;;;;;5052208;28;20212;-90
2022/11/20 08:54:05;;;;;;;6.82;3.42;;;6.50;99.90;;;;;;5048937;28;20208;-90
2022/11/20 08:56:31;;;;;;;7.95;3.05;;;;;;;;;;5051162;28;20195;-89
2022/11/20 08:58:59;;;;;;;9.02;3.95;;;;;;;;;;5050078;28;20192;-91
2022/11/20 09:01:25;;;;;;;2.20;2.00;;;;;;;;;;5059333;28;20642;-89
2022/11/20 09:03:51;;;;;;;3.83;2.73;;;;;;;;;;5050327;28;20796;-90
2022/11/20 09:06:17;;;;;;;3.63;2.70;;;;;;;;;;5051483;28;20435;-90
2022/11/20 09:08:43;;;;;;;3.70;2.30;;;;;;;;;;5049623;28;20469;-90
2022/11/20 09:11:09;;;;;;;2.85;1.67;;;;;;;;;;5056968;28;20204;-90
2022/11/20 09:13:35;;;;;;;3.03;2.07;;;6.40;99.90;;;;;;5064022;28;20203;-90
2022/11/20 09:16:07;;;;;;;2.42;2.00;;;6.50;99.90;;;;;;5052547;28;20966;-90
2022/11/20 09:18:35;;;;;;;5.65;3.50;;;6.60;99.90;;;;;;5045752;28;20239;-90
2022/11/20 09:21:03;;;;;;;4.40;3.20;;;6.90;99.90;;;;;;5057916;28;20204;-90
2022/11/20 09:23:32;;;;;;;3.00;2.70;;;7.10;99.90;;;;;;5052763;28;20181;-90
2022/11/20 09:25:59;;;;;;;2.67;2.17;;;;;;;;;;5055258;28;20189;-90
2022/11/20 09:28:25;;;;;;;5.60;4.05;;;;;;;;;;5054659;28;20200;-89
2022/11/20 09:30:51;;;;;;;4.97;3.00;;;;;;;;;;5065253;28;20227;-89
2022/11/20 09:33:18;;;;;;;3.77;2.90;;;;;;;;;;5074089;28;20169;-90
2022/11/20 09:35:44;;;;;;;4.38;3.33;;;;;;;;;;5052843;28;20528;-90
2022/11/20 09:38:10;;;;;;;4.50;2.75;;;;;;;;;;5052408;28;20184;-89
2022/11/20 09:40:43;;;;;;;4.43;3.80;;;7.10;99.90;;;;;;5051173;28;20197;-89
2022/11/20 09:43:50;;;;;;;5.15;3.60;;;7.00;99.90;;;;;;5066982;28;20188;-90
2022/11/20 09:46:16;;;;;;;4.75;3.42;;;;;;;;;;4976831;28;20278;-89
2022/11/20 09:49:00;;;;;;;6.60;3.95;;;7.10;99.90;;;;;;4977365;28;20210;-90
2022/11/20 09:51:56;;;;;;;8.32;3.97;;;7.10;99.90;;;;;;5020601;28;20215;-90
2022/11/20 09:54:34;;;;;;;4.32;3.60;;;9.50;99.90;;;;;;5054126;28;20433;-89
2022/11/20 09:57:03;;;;;;;3.90;3.38;;;7.10;99.90;;;;;;5065046;28;20176;-89
2022/11/20 09:59:34;;;;;;;4.30;2.72;;;7.40;99.90;;;;;;5056746;28;20665;-90
2022/11/20 10:02:02;;;;;;;3.97;3.10;;;7.00;99.90;;;;;;5053124;28;20189;-89
2022/11/20 10:04:31;;;;;;;3.75;3.00;;;7.00;99.90;;;;;;5051367;28;20239;-90
2022/11/20 10:07:06;;;;;;;3.35;2.45;;;7.10;99.90;;;;;;5066496;28;20185;-90
2022/11/20 10:09:41;;;;;;;2.90;2.60;;;7.20;99.90;;;;;;5051169;28;20334;-90
2022/11/20 10:12:07;;;;;;;5.13;3.05;;;;;;;;;;5057900;28;20191;-90
2022/11/20 10:15:11;;;;;;;4.72;3.60;;;7.40;99.90;;;;;;5057940;28;20251;-91
2022/11/20 10:18:02;;;;;;;8.77;2.85;;;7.40;99.90;;;;;;5054781;28;20207;-89
2022/11/20 10:20:48;;;;;;;3.38;2.65;;;7.40;99.90;;;;;;5057543;28;20236;-89
2022/11/20 10:23:35;;;;;;;3.42;2.90;;;7.70;99.90;;;;;;5056508;28;20211;-88
2022/11/20 10:26:03;;;;;;;4.13;2.00;;;7.20;99.90;;;;;;5052694;28;20215;-89
2022/11/20 10:28:48;;;;;;;4.35;3.45;;;7.40;99.90;;;;;;5059483;28;20209;-89
2022/11/20 10:31:36;;;;;;;3.95;2.90;;;7.50;99.90;;;;;;5060285;28;20230;-90
2022/11/20 10:34:18;;;;;;;6.15;2.58;;;7.80;99.90;;;;;;5053633;28;20211;-90
2022/11/20 10:36:55;;;;;;;4.90;2.75;;;7.80;99.90;;;;;;5052736;28;20185;-89
2022/11/20 10:39:41;;;;;;;2.97;2.40;;;7.80;99.90;;;;;;5061214;28;20280;-90
2022/11/20 10:42:14;;;;;;;3.40;3.10;;;7.60;99.90;;;;;;5074005;28;20284;-89
2022/11/20 10:45:02;;;;;;;5.60;2.47;;;7.80;99.90;;;;;;5063450;28;20435;-89
2022/11/20 10:47:31;;;;;;;5.50;2.83;;;7.50;99.90;;;;;;5049602;28;20214;-90
2022/11/20 10:50:03;;;;;;;8.52;2.83;;;7.40;99.90;;;;;;5051356;28;20200;-90
2022/11/20 10:52:35;;;;;;;6.80;2.88;;;7.30;99.90;;;;;;5049090;28;20192;-89
2022/11/20 10:55:11;;;;;;;5.00;2.42;;;7.30;99.90;;;;;;5051453;28;20201;-89
2022/11/20 10:57:57;;;;;;;4.78;2.90;;;7.20;99.90;;;;;;5055234;28;20188;-90
2022/11/20 11:00:24;;;;;;;2.10;1.90;;;7.30;99.90;;;;;;5063643;28;20209;-89
2022/11/20 11:02:52;;;;;;;2.22;2.03;;;7.30;99.90;;;;;;5061099;28;20190;-90
2022/11/20 11:05:18;;;;;;;3.92;2.20;;;;;;;;;;5065855;28;20192;-90
2022/11/20 11:07:45;;;;;;;5.90;3.47;;;7.40;99.90;;;;;;5066926;28;20315;-90
2022/11/20 11:10:18;;;;;;;6.60;4.03;;;7.30;99.90;;;;;;5063974;28;20468;-88
2022/11/20 11:12:47;;;;;;;7.28;3.58;;;7.10;99.90;;;;;;5048712;28;20515;-90
2022/11/20 11:15:25;;;;;;;3.15;2.35;;;7.20;99.90;;;;;;5056782;28;20203;-90
2022/11/20 11:17:51;;;;;;;8.20;4.28;;;;;;;;;;5067816;28;20492;-89
2022/11/20 11:20:22;;;;;;;8.07;5.50;;;7.30;99.90;;;;;;5060931;28;20662;-89
2022/11/20 11:22:51;;;;;;;5.75;5.07;;;7.50;99.90;;;;;;5067630;28;20196;-89
2022/11/20 11:25:23;;;;;;;4.60;3.45;;;7.50;99.90;;;;;;5049883;28;20326;-89
2022/11/20 11:27:50;;;;;;;7.20;5.22;;;7.60;99.90;;;;;;5048181;28;20243;-90
2022/11/20 11:30:18;;;;;;;7.07;5.43;;;7.80;99.90;;;;;;5059650;28;20201;-90
2022/11/20 11:32:45;;;;;;;8.25;4.13;;;;;;;;;;5066308;28;20696;-89
2022/11/20 11:35:21;;;;;;;5.38;3.75;;;7.60;99.90;;;;;;5066256;28;20279;-90
2022/11/20 11:37:48;;;;;;;16.85;4.32;;;;;;;;;;5057791;28;20921;-90
2022/11/20 11:40:15;;;;;;;8.98;3.30;;;7.60;99.90;;;;;;5048295;28;20200;-90
2022/11/20 11:42:50;;;;;;;11.13;4.13;;;7.70;99.90;;;;;;5046949;28;20193;-90
2022/11/20 11:45:19;;;;;;;4.43;3.65;;;7.80;99.90;;;;;;5055870;28;20176;-90
2022/11/20 11:47:47;;;;;;;5.05;3.35;;;7.60;99.90;;;;;;5051455;28;20312;-89
2022/11/20 11:50:14;;;;;;;4.88;3.33;;;;;;;;;;5049607;28;20195;-88
2022/11/20 11:52:53;;;;;;;6.05;4.00;;;7.80;99.90;;;;;;5045737;28;20246;-90
2022/11/20 11:55:49;;;;;;;5.30;3.20;;;7.80;99.90;;;;;;5048086;28;20684;-89
2022/11/20 11:58:45;;;;;;;7.85;5.20;;;7.90;99.90;;;;;;5028010;28;20697;-90
2022/11/20 12:01:34;;;;;;;6.85;3.63;;;8.10;99.90;;;;;;5050059;28;20217;-88
2022/11/20 12:04:28;;;;;;;9.65;4.45;;;8.10;99.90;;;;;;5048244;28;20867;-89
2022/11/20 12:07:08;;;;;;;3.63;3.28;;;8.00;99.90;;;;;;5049682;28;20227;-89
2022/11/20 12:09:40;;;;;;;8.45;2.80;;;7.90;99.90;;;;;;5050797;28;20271;-89
2022/11/20 12:12:16;;;;;;;6.82;3.63;;;8.00;99.90;;;;;;5048852;28;20183;-90
2022/11/20 12:14:46;;;;;;;10.68;3.47;;;7.90;99.90;;;;;;5055897;28;20184;-89
2022/11/20 12:17:13;;;;;;;5.60;3.15;;;8.00;99.90;;;;;;5058340;28;20281;-89
2022/11/20 12:19:40;;;;;;;12.30;4.15;;;8.20;99.90;;;;;;5061829;28;20234;-89
2022/11/20 12:22:06;;;;;;;7.45;2.70;;;;;;;;;;5047950;28;20174;-89
2022/11/20 12:24:57;;;;;;;8.03;2.60;;;8.10;99.90;;;;;;5067028;28;20742;-89
2022/11/20 12:27:48;;;;;;;5.60;2.63;;;7.90;99.90;;;;;;5048725;28;20912;-88
2022/11/20 12:30:19;;;;;;;3.63;2.10;;;7.60;99.90;;;;;;5056163;28;20261;-89
2022/11/20 12:33:18;;;;;;;5.93;2.17;;;7.60;99.90;;;;;;5056990;28;20184;-89
2022/11/20 12:36:17;;;;;;;5.20;2.05;;;7.40;99.90;;;;;;5060441;28;20184;-89
2022/11/20 12:39:08;;;;;;;4.65;2.67;;;7.30;99.90;;;;;;5050997;28;20528;-89
2022/11/20 12:45:15;;;;;;;4.55;2.85;;;7.50;99.90;;;;;;5061685;28;20211;-90
2022/11/20 12:48:02;;;;;;;3.38;2.45;;;7.50;99.90;;;;;;5057641;28;20595;-89
2022/11/20 12:50:34;;;;;;;4.28;2.05;;;7.60;99.90;;;;;;5068959;28;20264;-89
2022/11/20 12:53:07;;;;;;;6.63;2.05;;;7.50;99.90;;;;;;5057969;28;20219;-89
2022/11/20 12:56:03;;;;;;;2.35;1.50;;;7.60;99.90;;;;;;5053164;28;20555;-89
2022/11/20 12:59:11;;;;;;;3.10;1.85;;;7.60;99.90;;;;;;5042653;28;20191;-89
2022/11/20 13:01:48;;;;;;;3.28;1.98;;;7.70;99.90;;;;;;5056655;28;20740;-88
2022/11/20 13:04:35;;;;;;;3.22;2.40;;;7.90;99.90;;;;;;5050428;28;20203;-89
2022/11/20 13:07:07;;;;;;;2.83;2.55;;;8.00;99.90;;;;;;5051264;28;20299;-89
2022/11/20 13:09:37;;;;;;;3.25;2.20;;;8.20;99.90;;;;;;5043642;28;20215;-88
2022/11/20 13:12:24;;;;;;;4.80;2.00;;;8.40;99.90;;;;;;5049931;28;20751;-90
2022/11/20 13:15:11;;;;;;;2.75;2.20;;;8.60;99.90;;;;;;5077719;28;20222;-89
2022/11/20 13:17:57;;;;;;;1.85;1.65;;;8.40;99.90;;;;;;5073929;28;20196;-89
2022/11/20 13:20:23;;;;;;;5.07;2.20;;;8.50;99.90;;;;;;5058044;28;20277;-89
2022/11/20 13:22:54;;;;;;;3.25;2.10;;;8.50;99.90;;;;;;5045289;28;20203;-88
2022/11/20 13:25:30;;;;;;;5.15;2.40;;;8.40;99.90;;;;;;5046417;28;20185;-89
2022/11/20 13:27:59;;;;;;;1.42;1.33;;;8.10;99.90;;;;;;5047983;28;20204;-89
2022/11/20 13:30:30;;;;;;;2.80;2.08;;;7.90;99.90;;;;;;5056195;28;20211;-89
2022/11/20 13:33:00;;;;;;;4.35;2.15;;;7.90;99.90;;;;;;5058828;28;20181;-90
2022/11/20 13:35:29;;;;;;;3.42;1.20;;;7.60;99.90;;;;;;5073359;28;20172;-90
2022/11/20 13:38:12;;;;;;;1.80;1.60;;;7.70;99.90;;;;;;5061901;28;20215;-90
2022/11/20 13:40:53;;;;;;;9.20;2.28;;;7.60;99.90;;;;;;5056852;28;20270;-90
2022/11/20 13:43:39;;;;;;;3.00;0.82;;;7.40;99.90;;;;;;5063453;28;20188;-90
2022/11/20 13:46:07;;;;;;;1.42;1.08;;;7.50;99.90;;;;;;5057376;28;20195;-89
2022/11/20 13:48:38;;;;;;;2.58;1.17;;;6.20;99.90;;;;;;5071095;28;20212;-90
2022/11/20 13:51:44;;;;;;;2.67;1.10;;;7.50;99.90;;;;;;5052477;28;20200;-88
2022/11/20 13:54:43;;;;;;;3.40;1.50;;;7.70;99.90;;;;;;5046128;28;20185;-89
2022/11/20 13:57:26;;;;;;;1.98;1.10;;;7.70;99.90;;;;;;5052706;28;20181;-89
2022/11/20 14:00:15;;;;;;;2.47;1.40;;;8.00;99.90;;;;;;5051562;28;20201;-89
2022/11/20 14:02:41;;;;;;;2.28;1.58;;;8.00;99.90;;;;;;5052474;28;20196;-89